Dynex Capital Inc (DX) Latest Bloomsberg Price


Mffais Ranking #1594 Overall / #24 Industry
Industry: Mortgage Finance

Number of Companies: 75 (Ranking #1957 Overall/#30 Industry)
Inflow: $ 3,111 (K) (Ranking #2329 Overall/#36 Industry)
Outflow: $ -6,271 (K)
Mffais Flow: $ -3,160 (K) (Ranking #1594 Overall/#24 Industry)


Receive a FREE weekly executive review of stocks moving into the top 10, taking the top industy spot or moving up within their industry. Sent directly to your Inbox every Saturday. Sign up today and get last week's review immediately sent to you.

We value and respect your privacy. Please read our Terms and Conditions which states our firm commitment to your privacy. Your email address will not be shared with a third party, nor will it be sold or used for purposes other than subscription for the weekly review.

Owner CPOR Shares Action Qty Chg Invested (K) Total Current Value (K)
Hillsdale Investment Management Inc 2016-09-30 137,260 Added More 81,500 $ 553 $ 931
Advisors Asset Management Inc 2016-09-30 62,844 New Holding 62,844 $ 426 $ 426
Connor Clark Lunn Investment Management Ltd 2016-09-30 59,500 Added More 44,900 $ 304 $ 404
Stockman Asset Management 2016-09-30 28,100 New Holding 28,100 $ 190 $ 190
Secor Capital Advisors Lp 2016-09-30 25,642 New Holding 25,642 $ 174 $ 174
Her Majesty The Queen In Right Of The Province Of Alberta As 2016-09-30 23,900 New Holding 23,900 $ 162 $ 162
Tfs Capital Llc 2016-09-30 20,830 New Holding 20,830 $ 141 $ 141
Hancock Holding Co 2016-09-30 18,427 New Holding 18,427 $ 125 $ 125
James Investment Research Inc 2016-09-30 114,950 Added More 17,210 $ 116 $ 780
Aperio Group Llc 2016-09-30 78,871 Added More 16,067 $ 109 $ 535
Hightower Advisors Llc 2016-09-30 15,952 New Holding 15,952 $ 108 $ 108
Kbc Group Nv 2016-09-30 15,429 New Holding 15,429 $ 104 $ 104
Sg Americas Securities Llc 2016-09-30 14,547 New Holding 14,547 $ 98 $ 98
Acrospire Investment Management Llc 2016-09-30 26,697 Added More 12,555 $ 85 $ 181
Dynamic Technology Lab Private Ltd 2016-09-30 12,330 New Holding 12,330 $ 83 $ 83
Gsa Capital Partners Llp 2016-09-30 60,262 Added More 11,600 $ 78 $ 409
Indexiq Advisors Llc 2016-09-30 46,327 Added More 9,936 $ 67 $ 314
Springbok Capital Management Llc 2016-09-30 8,600 New Holding 8,600 $ 58 $ 58
Cambridge Investment Research Advisors Inc 2016-09-30 158,451 Added More 5,845 $ 39 $ 1,075
Ladenburg Thalmann Financial Services Inc 2016-09-30 81,816 Added More 4,531 $ 30 $ 555
Sterneck Capital Management Llc 2016-09-30 19,303 Added More 1,885 $ 12 $ 131
Rhumbline Advisers 2016-09-30 61,552 Added More 1,100 $ 7 $ 417
Finemark National Bank Trust 2016-09-30 1,225 Added More 1,000 $ 6 $ 8
California State Teachers Retirement System 2016-09-30 94,987 Added More 900 $ 6 $ 644
Pnc Financial Services Group Inc 2016-09-30 48,096 Added More 861 $ 5 $ 326
Zurcher Kantonalbank Zurich Cantonalbank 2016-09-30 2,923 Added More 807 $ 5 $ 19
Teachers Advisors Inc 2016-09-30 91,872 Added More 390 $ 2 $ 623
Group One Trading L P 2016-09-30 362 New Holding 362 $ 2 $ 2
Qs Investors Llc 2016-09-30 58,811 Added More 105 $ 0 $ 399
Cutler Group Lp 2016-09-30 100 New Holding 100 $ 0 $ 0
American International Group Inc 2016-09-30 25,869 Added More 39 $ 0 $ 175
Advisor Group Inc 2016-09-30 15,060 Added More 12 $ 0 $ 102
Legal General Group Plc 2016-09-30 7,651 No Change 0 $ 0 $ 51
Nationwide Fund Advisors 2016-09-30 31,006 No Change 0 $ 0 $ 210
Denali Advisors Llc 2016-09-30 239 No Change 0 $ 0 $ 1
Blackrock Inc 2016-09-30 1,820 No Change 0 $ 0 $ 12
Enterprise Financial Services Corp 2016-09-30 407 No Change 0 $ 0 $ 2
American Research Management Co 2016-09-30 1,000 No Change 0 $ 0 $ 6
Commonwealth Financial Services Llc 2016-09-30 646 No Change 0 $ 0 $ 4
Creative Planning 2016-09-30 19,387 No Change 0 $ 0 $ 131
Camelot Portfolios Llc 2016-09-30 66,550 No Change 0 $ 0 $ 451
Perigon Wealth Management Llc 2016-09-30 7,506 No Change 0 $ 0 $ 50
Swiss National Bank 2016-09-30 84,600 No Change 0 $ 0 $ 574
New England Private Wealth Advisors Llc 2016-09-30 10,000 No Change 0 $ 0 $ 67
Winch Advisory Services Llc 2016-09-30 255 No Change 0 $ 0 $ 1
Nisa Investment Advisors Llc 2016-09-30 3,500 No Change 0 $ 0 $ 23
Bronfman E L Rothschild L P 2016-09-30 34,000 No Change 0 $ 0 $ 230
Jacobi Capital Management Llc 2016-09-30 4,920 No Change 0 $ 0 $ 33
Tudor Investment Corp Et Al 2016-09-30 14,845 No Change 0 $ 0 $ 100
Mackenzie Financial Corp 2016-09-30 20,166 No Change 0 $ 0 $ 136
Delphi Financial Group Inc 2016-09-30 69,909 No Change 0 $ 0 $ 474
New York State Common Retirement Fund 2016-09-30 39,600 No Change 0 $ 0 $ 268
Deere Co 2016-09-30 18,178 No Change 0 $ 0 $ 123
Us Bancorp De 2016-09-30 167 No Change 0 $ 0 $ 1
Synovus Financial Corp 2016-09-30 13 No Change 0 $ 0 $ 0
Msi Financial Services Inc 2016-09-30 150 Sold Some -145 $ -0 $ 1
Sterling Capital Management Llc 2016-09-30 90,742 Sold Some -174 $ -1 $ 616
C M Bidwell Associates Ltd 2016-09-30 25,855 Sold Some -180 $ -1 $ 175
Strs Ohio 2016-09-30 15,400 Sold Some -600 $ -4 $ 104
Northern Trust Corp 2016-09-30 559,126 Sold Some -782 $ -5 $ 3,796
Raymond James Financial Services Advisors Inc 2016-09-30 30,187 Sold Some -1,477 $ -10 $ 204
Blackrock Investment Management Llc 2016-09-30 207,139 Sold Some -2,022 $ -13 $ 1,406
First Quadrant L P Ca 2016-09-30 14,133 Sold Some -6,167 $ -41 $ 95
Teacher Retirement System Of Texas 2016-09-30 0 Sold All -6,527 $ -44 $ 0
Walleye Trading Llc 2016-09-30 0 Sold All -6,600 $ -44 $ 0
Quantitative Systematic Strategies Llc 2016-09-30 0 Sold All -11,607 $ -78 $ 0
Stifel Financial Corp 2016-09-30 0 Sold All -15,465 $ -105 $ 0
Systematic Financial Management Lp 2016-09-30 161,709 Sold Some -26,540 $ -180 $ 1,098
Kcg Holdings Inc 2016-09-30 0 Sold All -28,659 $ -194 $ 0
Parametric Portfolio Associates Llc 2016-09-30 415,623 Sold Some -29,209 $ -198 $ 2,822
Emerald Acquisition Ltd 2016-09-30 0 Sold All -32,012 $ -217 $ 0
Menta Capital Llc 2016-09-30 57,264 Sold Some -36,219 $ -245 $ 388
Commonwealth Equity Services Inc 2016-09-30 348,468 Sold Some -45,779 $ -310 $ 2,366
Ifp Advisors Inc 2016-09-30 73,718 Sold Some -114,186 $ -775 $ 500
Talkot Capital Llc 2016-09-30 431,112 Sold Some -559,349 $ -3,797 $ 2,927